createdAt,value
2022-09-05T00:02:00.284Z,10.926062
2022-09-05T00:07:02.238Z,11.430782
2022-09-05T00:12:03.867Z,10.73982
2022-09-05T00:17:05.493Z,11.2832
2022-09-05T00:24:28.685Z,10.597382
2022-09-05T00:31:08.222Z,10.940298
2022-09-05T00:36:54.944Z,11.403794
2022-09-05T00:41:57.137Z,10.598278
2022-09-05T00:46:59.503Z,10.487062
2022-09-05T00:52:01.742Z,10.543552
2022-09-05T00:57:03.716Z,10.336562
2022-09-05T01:02:06.273Z,10.31743
2022-09-05T01:07:08.668Z,10.42836
2022-09-05T01:12:10.735Z,10.397586
2022-09-05T01:17:12.372Z,10.214438
2022-09-05T01:22:14.451Z,10.13279
2022-09-05T01:27:16.113Z,10.28124
2022-09-05T01:32:17.579Z,9.898444
2022-09-05T01:37:32.843Z,10.12264
2022-09-05T01:42:36.404Z,8.650972
2022-09-05T01:47:38.283Z,10.159388
2022-09-05T01:52:57.421Z,10.291176
2022-09-05T01:58:03.141Z,10.370378
2022-09-05T02:03:04.625Z,10.663426
2022-09-05T02:08:06.624Z,10.97737
2022-09-05T02:13:08.661Z,10.32697
2022-09-05T02:18:10.263Z,11.15269
2022-09-05T02:23:25.985Z,10.948236
2022-09-05T02:28:44.666Z,11.356572
2022-09-05T02:33:46.430Z,11.217552
2022-09-05T02:41:55.597Z,10.944274
2022-09-05T02:54:14.296Z,11.075342
2022-09-05T03:02:34.600Z,10.560596
2022-09-05T03:07:36.374Z,9.998356
2022-09-05T03:12:38.374Z,10.146468
2022-09-05T03:17:40.175Z,9.837544
2022-09-05T03:22:42.355Z,9.710452
2022-09-05T03:27:44.215Z,10.05467
2022-09-05T03:32:46.174Z,9.766332
2022-09-05T03:37:47.982Z,9.869882
2022-09-05T03:42:49.553Z,9.610826
2022-09-05T03:47:52.137Z,9.692908
2022-09-05T03:57:18.178Z,9.681442
2022-09-05T04:08:09.442Z,8.893242
2022-09-05T04:13:31.789Z,8.577424
2022-09-05T04:18:34.153Z,8.875154
2022-09-05T04:23:36.303Z,9.024324
2022-09-05T04:28:38.057Z,8.459438
2022-09-05T04:33:43.365Z,9.085224
2022-09-05T04:38:45.151Z,9.410024
2022-09-05T04:43:46.938Z,9.52124
2022-09-05T04:48:48.662Z,10.04596
2022-09-05T04:53:50.720Z,10.131298
2022-09-05T05:00:08.953Z,10.513322
2022-09-05T05:17:38.451Z,10.593082
2022-09-05T05:23:19.177Z,10.277536
2022-09-05T05:28:25.007Z,10.93175
2022-09-05T05:33:27.115Z,11.465914
2022-09-05T05:38:29.203Z,12.204966
2022-09-05T05:43:31.040Z,12.252798
2022-09-05T05:48:33.783Z,12.17442
2022-09-05T05:53:43.954Z,12.50629
2022-09-05T05:58:47.160Z,14.00639
2022-09-05T06:03:49.061Z,14.184422
2022-09-05T06:12:24.725Z,14.174176
2022-09-05T06:21:51.112Z,15.569872
2022-09-05T06:27:10.143Z,16.024628
2022-09-05T06:32:12.492Z,16.915456
2022-09-05T06:37:16.587Z,17.049876
2022-09-05T06:42:42.209Z,17.109202
2022-09-05T06:47:45.261Z,17.81414
2022-09-05T06:52:47.326Z,18.220006
2022-09-05T06:57:49.132Z,18.861494
2022-09-05T07:02:59.003Z,19.352916
2022-09-05T07:08:13.579Z,19.891112
2022-09-05T07:13:44.530Z,18.78948
2022-09-05T07:18:46.588Z,19.523282
2022-09-05T07:24:06.221Z,19.946802
2022-09-05T07:29:12.471Z,20.497306
2022-09-05T07:34:21.074Z,21.104884
2022-09-05T07:39:28.733Z,21.444666
2022-09-05T07:44:30.801Z,21.86284
2022-09-05T07:49:32.442Z,22.09393
2022-09-05T07:57:04.126Z,22.319226
2022-09-05T08:02:13.784Z,23.705794
2022-09-05T08:07:48.192Z,23.33434
2022-09-05T08:13:24.400Z,23.811474
2022-09-05T08:18:37.252Z,24.436232
2022-09-05T08:23:39.039Z,24.41505
2022-09-05T08:28:40.799Z,23.587454
2022-09-05T08:33:42.783Z,24.848938
2022-09-05T08:38:45.590Z,24.040556
2022-09-05T08:46:44.008Z,25.457168
2022-09-05T08:51:54.277Z,24.982626
2022-09-05T08:56:56.753Z,26.349614
2022-09-05T09:02:14.348Z,25.534366
2022-09-05T09:07:52.168Z,25.912646
2022-09-05T09:12:54.044Z,25.446136
2022-09-05T09:17:55.680Z,25.985026
2022-09-05T09:22:57.181Z,25.884354
2022-09-05T09:28:49.856Z,26.491946
2022-09-05T09:33:53.324Z,26.488622
2022-09-05T09:38:54.953Z,26.126068
2022-09-05T09:43:56.824Z,26.332842
2022-09-05T09:48:58.289Z,26.835162
2022-09-05T09:53:59.779Z,27.431886
2022-09-05T09:59:01.220Z,27.043048
2022-09-05T10:10:14.943Z,27.269662
2022-09-05T10:15:58.516Z,26.80687
2022-09-05T10:21:15.367Z,27.358854
2022-09-05T10:26:19.806Z,26.971306
2022-09-05T10:33:09.118Z,27.595414
2022-09-05T10:40:13.735Z,27.569374
2022-09-05T10:45:15.856Z,27.442484
2022-09-05T10:50:17.974Z,27.158188
2022-09-05T10:55:19.873Z,26.90506
2022-09-05T11:02:20.635Z,28.343154
2022-09-05T11:07:29.382Z,27.01032
2022-09-05T11:12:31.489Z,27.77285
2022-09-05T11:17:33.199Z,27.654768
2022-09-05T11:22:35.770Z,26.227312
2022-09-05T11:27:37.308Z,27.517932
2022-09-05T11:39:45.536Z,27.351324
2022-09-05T11:45:13.805Z,27.08559
2022-09-05T11:50:15.542Z,26.897352
2022-09-05T11:55:20.645Z,27.325948
2022-09-05T12:00:33.818Z,26.963558
2022-09-05T12:05:48.817Z,26.946148
2022-09-05T12:10:52.735Z,26.172178
2022-09-05T12:16:07.672Z,26.140358
2022-09-05T12:21:14.415Z,25.882386
2022-09-05T12:27:40.546Z,26.086988
2022-09-05T12:36:04.010Z,26.493954
2022-09-05T12:41:43.038Z,26.389754
2022-09-05T12:46:50.565Z,26.76076
2022-09-05T12:51:52.398Z,25.268686
2022-09-05T13:02:41.936Z,26.18013
2022-09-05T13:08:17.805Z,24.485816
2022-09-05T13:14:52.691Z,26.301944
2022-09-05T13:20:07.460Z,25.956096
2022-09-05T13:25:09.078Z,24.608376
2022-09-05T13:31:24.876Z,25.346332
2022-09-05T13:41:27.424Z,26.275904
2022-09-05T13:46:29.721Z,26.271494
2022-09-05T13:51:31.462Z,25.569674
2022-09-05T13:56:33.054Z,23.869294
2022-09-05T14:01:35.414Z,24.827742
2022-09-05T14:06:47.762Z,24.29675
2022-09-05T14:11:50.238Z,24.494446
2022-09-05T14:16:54.414Z,24.367082
2022-09-05T14:21:56.149Z,23.738348
2022-09-05T14:26:57.942Z,24.308678
2022-09-05T14:37:37.453Z,24.38764
2022-09-05T14:42:59.106Z,24.481202
2022-09-05T14:48:02.457Z,23.26618
2022-09-05T15:02:53.743Z,22.520938
2022-09-05T15:08:01.928Z,22.338902
2022-09-05T15:13:04.200Z,22.246778
2022-09-05T15:18:06.241Z,22.107554
2022-09-05T15:23:16.914Z,21.939454
2022-09-05T15:28:19.088Z,21.679922
2022-09-05T15:33:25.297Z,22.071608
2022-09-05T15:38:28.054Z,21.821046
2022-09-05T15:43:29.780Z,20.684634
2022-09-05T15:48:34.686Z,20.784126
2022-09-05T15:53:36.856Z,21.193724
2022-09-05T15:58:53.649Z,20.75966
2022-09-05T16:10:26.723Z,20.217664
2022-09-05T16:19:44.616Z,19.65625
2022-09-05T16:28:37.960Z,19.051644
2022-09-05T16:33:39.839Z,18.625288
2022-09-05T16:38:49.547Z,18.749314
2022-09-05T16:43:52.456Z,18.475928
2022-09-05T16:48:55.089Z,18.369298
2022-09-05T16:53:59.071Z,18.096102
2022-09-05T16:59:01.308Z,17.799498
2022-09-05T17:04:02.868Z,17.60928
2022-09-05T17:09:13.112Z,17.203238
2022-09-05T17:14:15.301Z,17.35363
2022-09-05T17:19:16.998Z,17.84645
2022-09-05T17:29:17.406Z,17.115294
2022-09-05T17:34:39.842Z,17.242848
2022-09-05T17:39:45.036Z,16.912904
2022-09-05T17:44:47.349Z,16.788526
2022-09-05T17:55:05.199Z,16.365712
2022-09-05T18:00:11.918Z,16.201086
2022-09-05T18:05:14.347Z,16.446112
2022-09-05T18:35:37.093Z,15.714632
2022-09-05T18:40:39.845Z,15.44259
2022-09-05T18:45:52.150Z,15.640746
2022-09-05T18:51:13.050Z,15.252806
2022-09-05T18:56:20.706Z,15.115102
2022-09-05T19:01:22.926Z,14.397042
2022-09-05T19:06:36.633Z,14.725846
2022-09-05T19:11:53.311Z,15.369152
2022-09-05T19:16:56.007Z,14.83363
2022-09-05T19:22:48.589Z,14.523266
2022-09-05T19:33:31.352Z,14.979706
2022-09-05T19:47:28.857Z,14.665476
2022-09-05T19:52:48.237Z,14.305002
2022-09-05T19:58:05.282Z,14.450806
2022-09-05T20:03:21.909Z,14.270576
2022-09-05T20:08:23.710Z,14.175588
2022-09-05T20:13:25.708Z,14.462896
2022-09-05T20:18:27.942Z,14.130836
2022-09-05T20:23:30.069Z,14.276654
2022-09-05T20:28:32.032Z,14.393786
2022-09-05T20:33:33.814Z,13.914754
2022-09-05T20:43:23.462Z,14.35875
2022-09-05T20:54:04.755Z,14.340552
2022-09-05T20:59:13.080Z,13.976102
2022-09-05T21:04:14.548Z,14.344962
2022-09-05T21:09:22.478Z,13.816238
2022-09-05T21:14:26.283Z,13.72824
2022-09-05T21:19:28.281Z,13.512702
2022-09-05T21:24:29.971Z,13.114884
2022-09-05T21:29:33.279Z,12.98045
2022-09-05T21:34:35.438Z,12.778862
2022-09-05T21:39:37.237Z,12.607804
2022-09-05T21:47:49.983Z,11.617458
2022-09-05T21:53:04.162Z,12.178654
2022-09-05T21:59:21.903Z,11.595666
2022-09-05T22:04:33.112Z,12.023758
2022-09-05T22:09:42.765Z,11.776602
2022-09-05T22:14:44.189Z,11.241284
2022-09-05T22:19:45.835Z,11.096686
2022-09-05T22:24:47.532Z,10.75069
2022-09-05T22:29:50.831Z,11.135198
2022-09-05T22:34:52.887Z,10.963802
2022-09-05T22:39:54.673Z,10.832176
2022-09-05T22:44:56.412Z,10.656194
2022-09-05T22:49:57.896Z,10.042212
2022-09-05T22:54:59.811Z,10.859642
2022-09-05T23:00:01.342Z,10.856386
2022-09-05T23:05:02.864Z,10.02186
2022-09-05T23:10:04.478Z,10.20589
2022-09-05T23:15:06.398Z,10.42919
2022-09-05T23:20:08.142Z,10.211616
2022-09-05T23:25:10.093Z,9.599074
2022-09-05T23:30:11.515Z,9.630244
2022-09-05T23:35:13.538Z,9.784148
2022-09-05T23:40:15.010Z,9.743548
2022-09-05T23:45:16.789Z,9.301182
2022-09-05T23:50:18.768Z,8.994756
2022-09-05T23:55:20.870Z,9.093162
